Time;durP1;ratioP1;P1;durP2;ratioP2;P2;SDS_P1;SDS_P2;PMS_P1;PMS_P2;Temp;Humidity;BMP_temperature;BMP_pressure;BME280_temperature;BME280_humidity;BME280_pressure;Samples;Min_cycle;Max_cycle;Signal;HPM_P1;HPM_P2
2022/06/18 00:00:56;;;;;;;;;15.25;15.25;;;;;27.73;41.12;101098.88;5118368;27;45675;-82
2022/06/18 00:03:23;;;;;;;;;17.50;17.50;;;;;27.56;40.86;101069.56;5118042;27;45445;-84
2022/06/18 00:05:51;;;;;;;;;16.50;15.00;;;;;27.69;40.82;101091.13;5119315;27;45346;-83
2022/06/18 00:08:22;;;;;;;;;18.25;15.25;;;;;27.66;41.33;101086.81;5121928;27;45378;-82
2022/06/18 00:10:53;;;;;;;;;15.50;15.25;;;;;27.64;41.17;101092.38;5120564;27;45360;-83
2022/06/18 00:13:39;;;;;;;;;16.00;14.75;;;;;27.62;41.35;101085.38;5117644;27;45390;-83
2022/06/18 00:16:06;;;;;;;;;19.50;18.00;;;;;27.59;41.34;101082.91;5118295;27;45502;-84
2022/06/18 00:18:31;;;;;;;;;12.25;12.00;;;;;27.56;41.49;101085.88;5119653;27;45423;-84
2022/06/18 00:21:00;;;;;;;;;13.25;13.00;;;;;27.51;41.19;101077.25;5122642;27;45392;-82
2022/06/18 00:23:26;;;;;;;;;16.25;15.00;;;;;27.48;41.69;101076.53;5102127;27;45208;-82
2022/06/18 00:25:53;;;;;;;;;17.25;15.75;;;;;27.42;41.58;101068.91;5120522;27;45391;-83
2022/06/18 00:28:22;;;;;;;;;16.50;16.25;;;;;27.46;41.47;101080.38;5127469;27;46606;-83
2022/06/18 00:30:48;;;;;;;;;17.75;16.25;;;;;27.38;41.66;101067.44;5127144;27;45306;-82
2022/06/18 00:33:16;;;;;;;;;17.50;14.00;;;;;27.25;42.06;101053.13;5121233;27;45585;-83
2022/06/18 00:35:42;;;;;;;;;15.00;15.00;;;;;27.35;41.97;101067.69;5117556;27;45544;-81
2022/06/18 00:38:13;;;;;;;;;17.00;15.75;;;;;27.34;42.41;101071.38;5116843;27;46396;-79
2022/06/18 00:40:42;;;;;;;;;15.75;15.75;;;;;27.29;42.07;101073.59;5118869;27;45336;-82
2022/06/18 00:43:16;;;;;;;;;17.25;15.00;;;;;27.26;42.32;101080.13;5117108;27;45363;-82
2022/06/18 00:45:41;;;;;;;;;16.00;14.75;;;;;27.22;42.74;101066.94;5117910;27;45555;-83
2022/06/18 00:48:17;;;;;;;;;15.00;13.00;;;;;27.23;42.52;101076.81;5114996;27;45555;-82
2022/06/18 00:50:59;;;;;;;;;14.75;14.00;;;;;27.17;42.46;101074.63;5118776;27;45440;-84
2022/06/18 00:53:36;;;;;;;;;16.75;15.25;;;;;27.17;42.81;101075.47;5120485;27;45541;-83
2022/06/18 00:56:11;;;;;;;;;12.75;12.75;;;;;27.10;43.21;101085.97;5098339;27;45626;-83
2022/06/18 00:58:43;;;;;;;;;15.50;15.50;;;;;27.10;42.93;101085.97;5115735;27;45558;-83
2022/06/18 01:01:15;;;;;;;;;15.50;12.50;;;;;27.06;42.74;101083.66;5118963;27;45287;-82
2022/06/18 01:03:43;;;;;;;;;18.25;15.50;;;;;27.05;42.70;101087.34;5123463;27;45323;-83
2022/06/18 01:06:22;;;;;;;;;11.50;11.50;;;;;27.03;42.79;101073.06;5121215;27;45647;-82
2022/06/18 01:08:51;;;;;;;;;14.75;14.75;;;;;27.03;42.93;101090.16;5114899;27;45539;-78
2022/06/18 01:11:25;;;;;;;;;17.25;12.75;;;;;26.98;42.78;101076.13;5115016;27;45498;-77
2022/06/18 01:13:51;;;;;;;;;13.00;13.00;;;;;26.89;42.89;101071.44;5099413;27;45446;-77
2022/06/18 01:16:18;;;;;;;;;12.00;11.75;;;;;26.90;42.99;101073.16;5115354;27;45450;-78
2022/06/18 01:18:49;;;;;;;;;14.50;13.25;;;;;26.70;43.20;101044.97;5114813;27;47276;-77
2022/06/18 01:21:25;;;;;;;;;13.50;13.25;;;;;26.81;43.08;101073.91;5115962;27;45516;-77
2022/06/18 01:23:57;;;;;;;;;15.50;14.00;;;;;26.85;43.03;101076.25;5113133;27;45544;-78
2022/06/18 01:26:22;;;;;;;;;12.75;12.75;;;;;26.85;42.97;101078.97;5115896;27;45576;-77
2022/06/18 01:28:48;;;;;;;;;13.00;13.00;;;;;26.79;42.84;101062.34;5115933;27;45490;-78
2022/06/18 01:31:14;;;;;;;;;19.75;17.25;;;;;26.81;43.45;101068.50;5116643;27;45411;-78
2022/06/18 01:33:39;;;;;;;;;14.25;14.25;;;;;26.77;43.95;101071.47;5115070;27;45507;-78
2022/06/18 01:36:09;;;;;;;;;15.00;14.75;;;;;26.70;44.16;101064.81;5119689;27;45673;-77
2022/06/18 01:38:40;;;;;;;;;18.25;17.25;;;;;26.68;44.45;101069.50;5116971;27;46396;-78
2022/06/18 01:44:07;;;;;;;;;16.25;15.00;;;;;26.57;44.67;101064.91;5115551;27;45388;-78
2022/06/18 01:46:35;;;;;;;;;20.50;20.00;;;;;26.52;44.50;101064.41;5095160;27;45477;-78
2022/06/18 01:49:05;;;;;;;;;14.75;14.25;;;;;26.50;45.00;101060.94;5112249;27;46388;-77
2022/06/18 01:51:36;;;;;;;;;17.00;17.00;;;;;26.45;44.73;101063.19;5114349;27;45464;-78
2022/06/18 01:54:08;;;;;;;;;16.50;16.50;;;;;26.41;45.21;101056.28;5115362;27;45363;-77
2022/06/18 01:56:40;;;;;;;;;17.00;16.25;;;;;26.41;45.07;101061.69;5116104;27;45480;-78
2022/06/18 01:59:16;;;;;;;;;16.75;15.50;;;;;26.28;45.12;101036.56;5114942;27;46161;-78
2022/06/18 02:01:45;;;;;;;;;17.00;17.00;;;;;26.34;45.30;101053.19;5116508;27;45258;-76
2022/06/18 02:04:12;;;;;;;;;17.00;14.75;;;;;26.25;45.33;101032.22;5117027;27;45460;-77
2022/06/18 02:06:38;;;;;;;;;17.50;15.50;;;;;26.26;45.43;101047.50;5116135;27;45603;-78
2022/06/18 02:09:43;;;;;;;;;15.75;15.75;;;;;26.21;45.70;101049.72;5114531;27;45661;-78
2022/06/18 02:12:14;;;;;;;;;15.00;14.75;;;;;26.17;45.83;101034.69;5091609;27;45430;-77
2022/06/18 02:14:44;;;;;;;;;16.25;16.25;;;;;26.08;45.88;101030.84;5103486;27;45579;-78
2022/06/18 02:17:17;;;;;;;;;15.00;15.00;;;;;26.03;45.53;101031.22;5115380;27;45317;-78
2022/06/18 02:19:47;;;;;;;;;17.00;16.00;;;;;26.05;45.60;101036.50;5094613;27;46542;-78
2022/06/18 02:22:13;;;;;;;;;15.00;15.00;;;;;25.98;45.53;101027.09;5108322;27;45463;-77
2022/06/18 02:24:40;;;;;;;;;16.75;16.75;;;;;25.92;45.82;101023.06;5117347;27;45558;-78
2022/06/18 02:27:05;;;;;;;;;15.75;14.00;;;;;25.90;46.16;101027.72;5120703;27;45384;-81
2022/06/18 02:29:32;;;;;;;;;15.75;14.50;;;;;25.94;46.23;101025.66;5120528;27;45454;-78
2022/06/18 02:32:01;;;;;;;;;17.50;17.00;;;;;25.89;46.23;101026.84;5099363;27;45409;-78
2022/06/18 02:34:31;;;;;;;;;16.00;16.00;;;;;25.90;46.04;101025.00;5099122;27;45477;-77
2022/06/18 02:37:00;;;;;;;;;13.50;13.50;;;;;25.90;46.37;101027.72;5098390;27;45442;-78
2022/06/18 02:39:39;;;;;;;;;15.75;12.25;;;;;25.83;46.50;101011.09;5113967;27;47216;-78
2022/06/18 02:42:17;;;;;;;;;15.00;15.00;;;;;25.84;46.47;101014.66;5118026;27;45503;-77
2022/06/18 02:44:45;;;;;;;;;14.00;14.00;;;;;25.79;46.36;101012.31;5117437;27;45388;-77
2022/06/18 02:47:12;;;;;;;;;14.25;13.75;;;;;25.75;46.62;101001.84;5118459;27;45322;-78
2022/06/18 02:49:42;;;;;;;;;12.75;12.75;;;;;25.76;46.11;100995.44;5117573;27;45427;-78
2022/06/18 02:52:07;;;;;;;;;15.50;15.50;;;;;25.67;46.77;101002.44;5109953;27;45481;-77
2022/06/18 02:54:33;;;;;;;;;15.50;15.50;;;;;25.66;46.54;101007.00;5104293;27;45554;-78
2022/06/18 02:57:02;;;;;;;;;16.75;15.00;;;;;25.65;47.14;101010.66;5118294;27;45485;-77
2022/06/18 02:59:28;;;;;;;;;15.25;15.00;;;;;25.58;46.71;100990.47;5134672;27;47457;-78
2022/06/18 03:01:54;;;;;;;;;16.50;15.25;;;;;25.59;47.14;100992.19;5122239;27;45791;-82
2022/06/18 03:04:19;;;;;;;;;14.25;13.50;;;;;25.56;46.69;100995.13;5121892;27;45420;-82
2022/06/18 03:06:44;;;;;;;;;13.25;12.00;;;;;25.51;47.14;100981.97;5127160;27;45413;-82
2022/06/18 03:09:10;;;;;;;;;15.25;12.00;;;;;25.49;47.07;100983.94;5124826;27;46007;-82
2022/06/18 03:14:21;;;;;;;;;12.00;11.00;;;;;25.48;47.10;100975.94;5123243;27;45566;-82
2022/06/18 03:16:48;;;;;;;;;12.75;12.75;;;;;25.45;46.34;100970.78;5126782;27;45322;-81
2022/06/18 03:19:29;;;;;;;;;12.25;11.25;;;;;25.44;46.33;100969.03;5132916;27;45661;-81
2022/06/18 03:22:01;;;;;;;;;13.25;12.50;;;;;25.33;45.83;100946.38;5141587;27;45743;-81
2022/06/18 03:24:26;;;;;;;;;15.50;13.25;;;;;25.26;45.62;100942.38;5121220;27;45384;-82
2022/06/18 03:26:53;;;;;;;;;13.25;12.50;;;;;25.32;46.03;100943.78;5120028;27;45302;-81
2022/06/18 03:29:19;;;;;;;;;11.00;11.00;;;;;25.38;45.91;100954.13;5119822;27;45509;-82
2022/06/18 03:31:44;;;;;;;;;14.75;12.25;;;;;25.34;45.61;100948.09;5118489;27;45943;-82
2022/06/18 03:34:10;;;;;;;;;10.50;10.50;;;;;25.32;45.85;100949.19;5121639;27;45383;-82
2022/06/18 03:36:35;;;;;;;;;10.00;10.00;;;;;25.32;45.73;100950.03;5125432;27;45418;-81
2022/06/18 03:39:00;;;;;;;;;10.00;10.00;;;;;25.21;45.80;100935.59;5123527;27;46387;-80
2022/06/18 03:41:26;;;;;;;;;10.25;10.25;;;;;25.30;45.58;100954.72;5123753;27;45430;-83
2022/06/18 03:43:54;;;;;;;;;9.75;9.75;;;;;25.28;45.54;100943.13;5104135;27;45552;-81
2022/06/18 03:46:20;;;;;;;;;13.25;13.25;;;;;25.28;45.78;100948.53;5118664;27;45529;-81
2022/06/18 03:48:53;;;;;;;;;13.00;11.75;;;;;25.19;45.62;100933.03;5117040;27;46283;-82
2022/06/18 03:51:19;;;;;;;;;10.25;10.25;;;;;25.18;45.97;100945.66;5121018;27;45619;-83
2022/06/18 03:53:45;;;;;;;;;13.00;12.00;;;;;25.09;45.68;100921.16;5117507;27;45398;-78
2022/06/18 03:56:16;;;;;;;;;12.50;9.75;;;;;25.21;45.30;100947.28;5116531;27;45309;-78
2022/06/18 03:58:42;;;;;;;;;14.75;13.25;;;;;25.20;45.03;100948.25;5113036;27;46409;-78
2022/06/18 04:01:09;;;;;;;;;9.50;9.50;;;;;25.19;44.59;100941.97;5117079;27;45468;-77
2022/06/18 04:03:35;;;;;;;;;8.50;8.50;;;;;25.19;44.70;100946.53;5116899;27;45331;-78
2022/06/18 04:06:00;;;;;;;;;12.25;11.25;;;;;25.14;44.69;100932.47;5117183;27;45617;-77
2022/06/18 04:08:26;;;;;;;;;10.75;9.75;;;;;25.18;45.42;100942.09;5114530;27;47086;-76
2022/06/18 04:10:51;;;;;;;;;12.25;10.75;;;;;25.24;44.70;100940.78;5116409;27;45498;-78
2022/06/18 04:13:17;;;;;;;;;12.50;10.75;;;;;25.25;44.97;100937.97;5116343;27;45691;-78
2022/06/18 04:15:42;;;;;;;;;12.00;10.00;;;;;25.27;45.47;100929.72;5116341;27;45568;-77
2022/06/18 04:18:12;;;;;;;;;14.00;12.00;;;;;25.27;45.58;100930.56;5116494;27;45402;-77
2022/06/18 04:20:38;;;;;;;;;11.50;11.25;;;;;25.34;45.34;100931.88;5117060;27;45456;-79
2022/06/18 04:23:04;;;;;;;;;10.50;10.50;;;;;25.38;45.30;100942.47;5114860;27;45470;-78
2022/06/18 04:25:31;;;;;;;;;12.50;12.50;;;;;25.40;44.95;100941.34;5114709;27;45586;-77
2022/06/18 04:27:57;;;;;;;;;11.50;11.50;;;;;25.44;44.66;100925.75;5116062;27;46235;-82
2022/06/18 04:30:25;;;;;;;;;11.50;11.00;;;;;25.47;45.60;100926.38;5117492;27;45390;-77
2022/06/18 04:32:51;;;;;;;;;10.50;9.00;;;;;25.54;45.70;100926.78;5117995;27;45391;-77
2022/06/18 04:35:17;;;;;;;;;14.75;13.25;;;;;25.42;45.51;100881.75;5117152;27;45462;-79
2022/06/18 04:37:44;;;;;;;;;15.50;13.75;;;;;25.70;45.54;100924.56;5115314;27;45542;-77
2022/06/18 04:40:17;;;;;;;;;14.00;14.00;;;;;25.78;45.40;100914.97;5114874;27;45449;-79
2022/06/18 04:42:43;;;;;;;;;17.00;14.25;;;;;25.87;45.32;100923.25;5116587;27;45330;-77
2022/06/18 04:45:09;;;;;;;;;15.00;12.25;;;;;26.01;45.00;100929.44;5115992;27;45424;-78
2022/06/18 04:47:35;;;;;;;;;14.75;13.50;;;;;26.09;45.41;100921.56;5114304;27;46389;-76
2022/06/18 04:50:00;;;;;;;;;15.00;15.00;;;;;26.26;45.19;100933.75;5117984;27;45327;-76
2022/06/18 04:52:33;;;;;;;;;16.75;16.25;;;;;26.38;44.80;100932.75;5116304;27;45556;-79
2022/06/18 04:54:58;;;;;;;;;14.50;13.50;;;;;26.49;45.04;100928.31;5115355;27;45440;-77
2022/06/18 04:57:24;;;;;;;;;14.50;14.50;;;;;26.62;44.73;100929.03;5114994;27;46443;-78
2022/06/18 04:59:49;;;;;;;;;12.25;12.00;;;;;26.87;44.16;100932.44;5117995;27;45451;-77
2022/06/18 05:02:24;;;;;;;;;12.00;12.00;;;;;27.06;43.87;100943.47;5120075;27;45360;-79
2022/06/18 05:04:49;;;;;;;;;13.50;13.00;;;;;27.24;44.10;100937.47;5115600;27;45463;-79
2022/06/18 05:07:15;;;;;;;;;14.75;13.00;;;;;27.43;43.94;100940.38;5115613;27;46067;-78
2022/06/18 05:09:40;;;;;;;;;15.50;15.00;;;;;27.67;43.40;100944.69;5114655;27;45484;-78
2022/06/18 05:12:06;;;;;;;;;11.50;11.50;;;;;27.85;42.51;100920.50;5116100;27;45255;-78
2022/06/18 05:14:32;;;;;;;;;15.00;15.00;;;;;28.13;42.47;100935.22;5117319;27;45492;-83
2022/06/18 05:16:58;;;;;;;;;15.75;14.25;;;;;28.34;42.09;100937.88;5117087;27;46150;-82
2022/06/18 05:19:26;;;;;;;;;16.25;16.25;;;;;28.56;41.29;100935.09;5116260;27;45463;-82
2022/06/18 05:21:52;;;;;;;;;13.25;13.25;;;;;28.85;41.41;100927.03;5100160;27;45304;-82
2022/06/18 05:24:18;;;;;;;;;13.75;13.75;;;;;29.13;40.19;100930.75;5115943;27;45318;-83
2022/06/18 05:26:47;;;;;;;;;14.00;14.00;;;;;29.44;40.60;100921.63;5117927;27;46211;-82
2022/06/18 05:29:15;;;;;;;;;15.25;14.25;;;;;29.67;39.43;100916.69;5122533;27;45381;-81
2022/06/18 05:31:40;;;;;;;;;14.50;14.25;;;;;30.01;38.47;100921.66;5116723;27;45368;-81
2022/06/18 05:34:06;;;;;;;;;11.50;11.50;;;;;30.28;38.55;100909.91;5116889;27;45357;-82
2022/06/18 05:36:31;;;;;;;;;15.25;15.25;;;;;30.53;38.09;100897.44;5112982;27;46412;-83
2022/06/18 05:38:57;;;;;;;;;16.75;16.75;;;;;30.87;38.16;100912.28;5116768;27;45504;-83
2022/06/18 05:41:23;;;;;;;;;15.50;14.75;;;;;31.11;37.97;100898.06;5116922;27;45435;-82
2022/06/18 05:43:49;;;;;;;;;14.50;14.50;;;;;31.42;37.62;100894.91;5117431;27;45373;-82
2022/06/18 05:46:15;;;;;;;;;12.00;12.00;;;;;31.83;36.42;100901.50;5116995;27;45417;-82
2022/06/18 05:48:41;;;;;;;;;12.25;12.25;;;;;31.98;35.45;100890.84;5116754;27;45456;-82
2022/06/18 05:51:06;;;;;;;;;16.25;14.50;;;;;32.32;35.81;100905.53;5116412;27;45319;-82
2022/06/18 05:53:32;;;;;;;;;15.25;14.25;;;;;32.72;34.78;100903.94;5116841;27;45497;-82
2022/06/18 05:55:57;;;;;;;;;16.75;15.00;;;;;33.09;34.15;100899.91;5134325;27;47221;-82
2022/06/18 05:58:23;;;;;;;;;17.00;15.75;;;;;33.40;33.41;100894.59;5127822;27;45370;-81
2022/06/18 06:00:48;;;;;;;;;17.00;17.00;;;;;33.65;33.03;100897.31;5129739;27;45302;-77
2022/06/18 06:03:14;;;;;;;;;15.25;14.25;;;;;34.01;32.26;100885.91;5120039;27;45478;-78
2022/06/18 06:05:39;;;;;;;;;15.00;15.00;;;;;34.40;31.44;100895.22;5118139;27;46504;-78
2022/06/18 06:08:05;;;;;;;;;12.00;12.00;;;;;34.75;30.80;100877.34;5118002;27;45488;-78
2022/06/18 06:13:18;;;;;;;;;14.50;14.50;;;;;35.47;29.89;100869.72;5109932;27;45490;-78
2022/06/18 06:15:45;;;;;;;;;11.75;11.75;;;;;35.88;28.75;100877.56;5117701;27;45849;-78
2022/06/18 06:18:13;;;;;;;;;11.75;11.75;;;;;36.21;27.82;100871.66;5130340;27;46094;-78
2022/06/18 06:20:42;;;;;;;;;13.50;12.75;;;;;36.39;27.85;100863.00;5117812;27;45334;-78
2022/06/18 06:23:09;;;;;;;;;12.75;12.75;;;;;36.56;27.86;100875.47;5118366;27;45525;-78
2022/06/18 06:25:35;;;;;;;;;11.50;11.50;;;;;36.83;26.81;100866.69;5117350;27;46608;-78
2022/06/18 06:28:01;;;;;;;;;12.25;11.00;;;;;36.88;26.70;100870.56;5118502;27;45509;-78
2022/06/18 06:30:27;;;;;;;;;12.00;12.00;;;;;37.30;26.37;100868.81;5118796;27;45521;-79
2022/06/18 06:32:53;;;;;;;;;12.00;12.00;;;;;37.67;26.53;100866.75;5118315;27;45460;-79
2022/06/18 06:35:18;;;;;;;;;10.75;10.25;;;;;38.11;25.80;100867.41;5112449;27;47368;-78
2022/06/18 06:37:44;;;;;;;;;11.25;11.25;;;;;38.57;24.81;100860.41;5097268;27;45451;-78
2022/06/18 06:40:10;;;;;;;;;15.00;15.00;;;;;38.88;25.61;100862.56;5114263;27;45507;-77
2022/06/18 06:42:48;;;;;;;;;11.50;11.00;;;;;39.31;24.61;100864.09;5118866;27;45418;-78
2022/06/18 06:45:17;;;;;;;;;12.25;11.25;;;;;39.55;23.60;100857.06;5117647;27;48044;-78
2022/06/18 06:47:43;;;;;;;;;10.75;10.75;;;;;39.56;23.22;100869.84;5115964;27;45510;-78
2022/06/18 06:50:11;;;;;;;;;9.75;9.75;;;;;39.83;23.64;100864.25;5113057;27;45461;-78
2022/06/18 06:52:37;;;;;;;;;10.25;10.25;;;;;40.13;22.91;100867.34;5098042;27;45475;-79
2022/06/18 06:57:48;;;;;;;;;10.00;10.00;;;;;40.88;23.10;100881.66;5107938;27;45526;-78
2022/06/18 07:00:19;;;;;;;;;12.00;11.00;;;;;41.17;21.10;100882.91;5117852;27;45525;-79
2022/06/18 07:02:45;;;;;;;;;11.00;11.00;;;;;41.51;22.42;100875.16;5119631;27;45481;-83
2022/06/18 07:05:13;;;;;;;;;10.75;10.75;;;;;41.91;22.23;100885.88;5119156;27;46584;-82
2022/06/18 07:07:38;;;;;;;;;10.50;10.00;;;;;42.24;20.15;100877.16;5116071;27;45569;-83
2022/06/18 07:10:08;;;;;;;;;11.00;11.00;;;;;42.49;19.80;100880.88;5117059;27;45680;-81
2022/06/18 07:12:34;;;;;;;;;7.50;7.50;;;;;42.69;19.60;100877.81;5118156;27;45576;-83
2022/06/18 07:15:00;;;;;;;;;11.00;11.00;;;;;42.82;19.39;100883.19;5119430;27;45617;-85
2022/06/18 07:17:27;;;;;;;;;9.00;9.00;;;;;43.06;19.89;100874.91;5118716;27;45504;-80
2022/06/18 07:19:53;;;;;;;;;10.00;9.00;;;;;43.29;19.31;100880.47;5113572;27;45429;-79
2022/06/18 07:22:18;;;;;;;;;10.00;10.00;;;;;43.55;19.09;100881.13;5117196;27;45423;-77
2022/06/18 07:24:44;;;;;;;;;9.75;9.75;;;;;43.86;18.58;100881.81;5114118;27;46054;-78
2022/06/18 07:27:09;;;;;;;;;8.50;8.50;;;;;44.14;17.97;100869.03;5115880;27;45467;-78
2022/06/18 07:29:35;;;;;;;;;9.25;9.25;;;;;44.38;18.21;100874.53;5117105;27;45932;-82
2022/06/18 07:32:07;;;;;;;;;8.25;8.25;;;;;44.55;17.95;100880.97;5116940;27;45386;-83
2022/06/18 07:34:33;;;;;;;;;12.00;12.00;;;;;44.63;17.14;100876.97;5118492;27;46315;-83
2022/06/18 07:36:59;;;;;;;;;10.75;10.75;;;;;44.37;17.09;100862.56;5117078;27;45559;-81
2022/06/18 07:39:24;;;;;;;;;10.00;10.00;;;;;44.62;17.81;100869.72;5117155;27;45681;-83
2022/06/18 07:41:53;;;;;;;;;11.75;11.25;;;;;44.74;17.59;100864.91;5119308;27;45418;-78
2022/06/18 07:44:19;;;;;;;;;10.50;10.50;;;;;44.94;17.82;100856.06;5116859;27;46216;-79
2022/06/18 07:46:47;;;;;;;;;10.00;10.00;;;;;45.02;16.44;100864.03;5116564;27;45446;-77
2022/06/18 07:49:12;;;;;;;;;9.50;9.50;;;;;45.05;16.95;100857.97;5116438;27;45383;-76
2022/06/18 07:51:39;;;;;;;;;8.75;8.75;;;;;45.08;17.13;100856.59;5115252;27;45491;-76
2022/06/18 07:54:04;;;;;;;;;9.00;9.00;;;;;45.16;17.58;100858.97;5115582;27;46325;-78
2022/06/18 07:56:30;;;;;;;;;12.25;12.25;;;;;45.48;16.53;100860.28;5117759;27;45373;-82
2022/06/18 07:58:56;;;;;;;;;9.00;9.00;;;;;45.54;16.80;100842.50;5119865;27;45472;-82
2022/06/18 08:01:21;;;;;;;;;11.00;11.00;;;;;45.52;17.25;100842.75;5118545;27;45232;-81
2022/06/18 08:03:46;;;;;;;;;10.75;10.75;;;;;45.63;16.45;100854.06;5117531;27;46623;-81
2022/06/18 08:06:12;;;;;;;;;12.75;12.00;;;;;45.67;16.55;100839.34;5116997;27;45508;-80
2022/06/18 08:08:37;;;;;;;;;9.50;9.50;;;;;46.11;16.47;100849.69;5111536;27;45337;-80
2022/06/18 08:11:07;;;;;;;;;11.50;10.75;;;;;46.28;16.68;100844.88;5119338;27;45453;-81
2022/06/18 08:13:32;;;;;;;;;9.75;9.25;;;;;46.49;16.93;100836.69;5127832;27;46924;-81
2022/06/18 08:15:58;;;;;;;;;9.25;9.00;;;;;46.69;15.64;100836.06;5114841;27;45515;-80
2022/06/18 08:18:23;;;;;;;;;10.00;10.00;;;;;46.78;15.56;100837.25;5117298;27;45444;-81
2022/06/18 08:20:48;;;;;;;;;10.00;10.00;;;;;46.68;16.00;100819.56;5116926;27;45471;-80
2022/06/18 08:23:14;;;;;;;;;11.50;9.25;;;;;46.91;15.66;100815.56;5118100;27;45695;-81
2022/06/18 08:25:42;;;;;;;;;9.50;9.50;;;;;46.94;15.37;100810.31;5117432;27;45382;-80
2022/06/18 08:28:09;;;;;;;;;12.50;12.00;;;;;47.07;16.15;100814.56;5119888;27;45389;-81
2022/06/18 08:30:35;;;;;;;;;11.00;11.00;;;;;47.30;15.83;100812.47;5120327;27;45389;-81
2022/06/18 08:33:01;;;;;;;;;11.00;11.00;;;;;47.36;15.29;100814.22;5116531;27;45524;-80
2022/06/18 08:35:26;;;;;;;;;8.50;8.50;;;;;47.55;15.84;100813.78;5110856;27;45407;-81
2022/06/18 08:37:53;;;;;;;;;11.25;10.25;;;;;47.78;15.92;100813.31;5117639;27;45553;-80
2022/06/18 08:40:37;;;;;;;;;10.50;10.50;;;;;47.92;14.88;100818.41;5117837;27;45402;-80
2022/06/18 08:43:08;;;;;;;;;10.00;10.00;;;;;47.90;14.31;100815.88;5117007;27;45432;-82
2022/06/18 08:45:48;;;;;;;;;12.25;10.00;;;;;47.45;14.94;100809.81;5115360;27;45570;-77
2022/06/18 08:48:20;;;;;;;;;9.75;9.75;;;;;47.26;14.29;100789.81;5109147;27;45539;-80
2022/06/18 08:50:51;;;;;;;;;10.50;10.50;;;;;47.19;14.69;100799.56;5101412;27;45397;-81
2022/06/18 08:53:49;;;;;;;;;12.00;11.75;;;;;47.30;14.87;100801.28;5115215;27;46270;-80
2022/06/18 08:56:21;;;;;;;;;13.00;12.00;;;;;47.11;15.21;100787.78;5115107;27;45469;-78
2022/06/18 08:59:19;;;;;;;;;9.25;9.25;;;;;47.21;14.05;100780.56;5113594;27;45509;-79
2022/06/18 09:02:03;;;;;;;;;9.75;9.75;;;;;47.11;15.02;100781.34;5108039;27;45520;-81
2022/06/18 09:05:20;;;;;;;;;10.00;10.00;;;;;47.15;14.97;100777.72;5103654;27;47181;-76
2022/06/18 09:08:03;;;;;;;;;11.25;10.00;;;;;47.44;15.35;100782.13;5087882;27;45466;-77
2022/06/18 09:11:17;;;;;;;;;9.67;9.67;;;;;47.69;14.82;100781.34;5098936;27;45627;-77
2022/06/18 09:13:57;;;;;;;;;11.50;10.50;;;;;47.70;14.50;100771.88;5116024;27;46055;-76
2022/06/18 09:16:32;;;;;;;;;9.25;9.25;;;;;47.52;14.63;100767.59;5115605;27;46577;-76
2022/06/18 09:19:01;;;;;;;;;9.33;9.33;;;;;47.62;13.96;100764.84;5114404;27;45401;-77
2022/06/18 09:21:34;;;;;;;;;9.33;9.33;;;;;47.75;13.96;100762.66;5115085;27;45332;-78
2022/06/18 09:24:06;;;;;;;;;9.33;8.33;;;;;47.85;14.07;100762.69;5115339;27;45379;-78
2022/06/18 09:26:39;;;;;;;;;8.25;8.25;;;;;48.09;14.60;100757.47;5115809;27;46103;-77
2022/06/18 09:29:10;;;;;;;;;12.00;10.67;;;;;47.90;13.47;100759.91;5115126;27;45681;-77
2022/06/18 09:31:42;;;;;;;;;12.25;12.25;;;;;47.65;14.18;100755.03;5115007;27;45443;-78
2022/06/18 09:34:20;;;;;;;;;20.33;19.33;;;;;47.71;14.83;100751.16;5115504;27;45460;-77
2022/06/18 09:36:52;;;;;;;;;11.67;11.33;;;;;47.76;14.33;100742.81;5115300;27;47448;-78
2022/06/18 09:39:30;;;;;;;;;9.50;9.50;;;;;48.01;14.53;100736.41;5115700;27;45526;-77
2022/06/18 09:42:00;;;;;;;;;11.75;11.75;;;;;48.06;13.69;100738.38;5114034;27;45360;-77
2022/06/18 09:44:25;;;;;;;;;12.00;11.00;;;;;48.06;14.10;100734.72;5115393;27;45814;-80
2022/06/18 09:47:00;;;;;;;;;9.00;9.00;;;;;48.05;14.39;100736.69;5114772;27;46857;-78
2022/06/18 09:49:26;;;;;;;;;10.33;10.33;;;;;47.72;13.28;100730.47;5115860;27;45339;-78
2022/06/18 09:52:12;;;;;;;;;9.00;9.00;;;;;47.63;14.29;100729.28;5116018;27;45475;-77
2022/06/18 09:54:47;;;;;;;;;10.00;10.00;;;;;47.84;14.05;100728.25;5120353;27;45372;-81
2022/06/18 09:57:15;;;;;;;;;9.00;9.00;;;;;47.76;13.91;100720.41;5120276;27;47234;-77
2022/06/18 09:59:59;;;;;;;;;8.25;8.25;;;;;47.69;13.46;100708.59;5115867;27;45313;-78
2022/06/18 10:02:28;;;;;;;;;11.00;9.75;;;;;47.89;13.13;100710.63;5115822;27;45318;-78
2022/06/18 10:07:45;;;;;;;;;8.67;8.67;;;;;47.99;13.26;100707.03;5109481;27;45506;-78
2022/06/18 10:10:14;;;;;;;;;6.25;6.25;;;;;48.06;12.79;100701.13;5124819;27;45338;-79
2022/06/18 10:12:53;;;;;;;;;8.00;8.00;;;;;47.99;13.15;100701.41;5120481;27;45380;-78
2022/06/18 10:15:20;;;;;;;;;10.00;9.00;;;;;47.97;12.93;100687.69;5115467;27;45441;-81
2022/06/18 10:18:23;;;;;;;;;9.00;9.00;;;;;47.50;12.53;100691.50;5110650;27;47904;-78
2022/06/18 10:21:32;;;;;;;;;10.00;9.33;;;;;47.46;12.99;100685.59;5094433;27;45544;-77
2022/06/18 10:24:33;;;;;;;;;7.50;7.50;;;;;47.05;13.38;100682.63;5094866;27;45399;-79
2022/06/18 10:27:37;;;;;;;;;9.33;9.00;;;;;46.83;13.21;100679.13;5089631;27;45536;-78
2022/06/18 10:30:16;;;;;;;;;7.00;7.00;;;;;46.49;13.17;100666.31;4955168;28;46120;-77
2022/06/18 10:32:58;;;;;;;;;9.50;9.00;;;;;46.19;13.27;100664.13;4956842;28;45438;-81
2022/06/18 10:35:47;;;;;;;;;7.50;7.50;;;;;46.07;13.38;100661.47;4971748;28;45600;-76
2022/06/18 10:38:15;;;;;;;;;7.00;7.00;;;;;46.36;13.62;100659.25;4971893;28;45509;-81
2022/06/18 10:40:53;;;;;;;;;10.50;9.75;;;;;46.55;12.67;100664.41;4971317;28;46476;-77
2022/06/18 10:43:47;;;;;;;;;9.25;9.25;;;;;46.66;13.30;100652.19;4971563;28;45763;-79
2022/06/18 10:46:17;;;;;;;;;9.50;9.50;;;;;46.43;12.86;100659.00;4936056;28;45449;-81
2022/06/18 10:48:49;;;;;;;;;10.25;9.25;;;;;46.43;12.88;100653.44;4936428;28;45494;-77
2022/06/18 10:51:19;;;;;;;;;8.50;8.50;;;;;46.37;13.54;100644.16;4936675;28;45578;-81
2022/06/18 10:54:15;;;;;;;;;9.50;9.50;;;;;46.32;13.68;100634.94;4936701;28;45535;-82
2022/06/18 10:56:53;;;;;;;;;12.00;11.25;;;;;46.11;13.95;100638.34;4936711;28;45525;-81
2022/06/18 10:59:39;;;;;;;;;10.00;9.00;;;;;46.10;14.19;100631.09;4939040;28;45446;-82
2022/06/18 11:02:18;;;;;;;;;10.50;9.00;;;;;45.94;13.93;100624.53;4930350;28;46105;-81
2022/06/18 11:04:56;;;;;;;;;9.25;8.50;;;;;46.08;13.76;100622.13;4966926;28;45527;-78
2022/06/18 11:07:26;;;;;;;;;9.50;8.50;;;;;45.86;13.09;100621.38;5042873;28;45459;-78
2022/06/18 11:10:06;;;;;;;;;8.50;8.00;;;;;45.76;13.14;100600.63;5048190;28;45383;-77
2022/06/18 11:12:38;;;;;;;;;7.75;7.75;;;;;45.79;13.16;100606.81;5054453;28;46094;-80
2022/06/18 11:15:22;;;;;;;;;9.25;9.25;;;;;45.69;13.29;100613.97;5055333;28;45391;-81
2022/06/18 11:17:48;;;;;;;;;10.75;10.50;;;;;45.56;14.10;100615.22;5053817;28;45536;-81
2022/06/18 11:20:23;;;;;;;;;9.75;8.50;;;;;45.59;14.64;100599.94;5054900;28;45618;-81
2022/06/18 11:23:16;;;;;;;;;10.00;9.00;;;;;45.60;14.29;100596.03;5065297;27;46944;-81
2022/06/18 11:25:42;;;;;;;;;10.00;9.25;;;;;45.71;14.76;100591.41;5119203;27;45259;-80
2022/06/18 11:28:39;;;;;;;;;9.25;9.25;;;;;45.91;14.18;100591.59;5117177;27;45535;-77
2022/06/18 11:31:09;;;;;;;;;11.50;10.25;;;;;45.93;14.48;100594.97;5097072;27;45415;-78
2022/06/18 11:33:41;;;;;;;;;10.00;10.00;;;;;45.89;13.61;100582.66;5105940;27;45613;-81
2022/06/18 11:36:12;;;;;;;;;11.50;10.25;;;;;45.62;13.77;100581.81;5118252;27;45371;-83
2022/06/18 11:38:40;;;;;;;;;10.50;9.75;;;;;45.62;13.94;100576.25;5117651;27;45505;-82
2022/06/18 11:41:23;;;;;;;;;9.75;9.25;;;;;45.68;13.94;100553.69;5117989;27;45598;-81